createdAt,value
2023-01-03T00:00:42.840Z,101423.56
2023-01-03T00:03:44.588Z,101425.38
2023-01-03T00:06:47.863Z,101428.03
2023-01-03T00:09:49.451Z,101425.59
2023-01-03T00:12:52.469Z,101434.78
2023-01-03T00:15:54.111Z,101436.25
2023-01-03T00:18:55.709Z,101439.06
2023-01-03T00:21:57.435Z,101443.19
2023-01-03T00:24:59.473Z,101434.94
2023-01-03T00:28:02.513Z,101441.50
2023-01-03T00:31:06.556Z,101443.38
2023-01-03T00:34:08.984Z,101449.72
2023-01-03T00:37:10.973Z,101454.03
2023-01-03T00:40:13.012Z,101451.22
2023-01-03T00:43:31.352Z,101437.94
2023-01-03T00:46:33.925Z,101439.78
2023-01-03T00:49:35.752Z,101442.63
2023-01-03T00:52:37.453Z,101436.44
2023-01-03T00:55:39.069Z,101444.06
2023-01-03T00:58:42.463Z,101455.81
2023-01-03T01:01:47.498Z,101451.72
2023-01-03T01:04:49.657Z,101463.47
2023-01-03T01:07:51.502Z,101457.69
2023-01-03T01:11:02.310Z,101470.41
2023-01-03T01:14:19.664Z,101468.50
2023-01-03T01:17:22.970Z,101471.31
2023-01-03T01:20:24.922Z,101467.19
2023-01-03T01:23:26.528Z,101473.72
2023-01-03T01:26:28.155Z,101480.78
2023-01-03T01:29:31.121Z,101478.38
2023-01-03T01:32:32.838Z,101484.88
2023-01-03T01:35:34.570Z,101478.50
2023-01-03T01:38:36.563Z,101491.53
2023-01-03T01:41:57.196Z,101486.63
2023-01-03T01:45:01.417Z,101486.78
2023-01-03T01:48:06.849Z,101490.72
2023-01-03T01:51:10.633Z,101496.28
2023-01-03T01:54:12.612Z,101496.09
2023-01-03T01:57:18.325Z,101494.84
2023-01-03T02:00:21.934Z,101500.13
2023-01-03T02:03:23.716Z,101506.28
2023-01-03T02:06:25.464Z,101498.97
2023-01-03T02:09:27.187Z,101513.91
2023-01-03T02:12:56.801Z,101508.69
2023-01-03T02:16:13.121Z,101503.75
2023-01-03T02:19:45.415Z,101501.66
2023-01-03T02:23:16.967Z,101507.44
2023-01-03T02:26:38.522Z,101504.44
2023-01-03T02:29:58.839Z,101498.22
2023-01-03T02:33:11.593Z,101511.09
2023-01-03T02:36:22.852Z,101505.69
2023-01-03T02:39:28.829Z,101506.38
2023-01-03T02:43:11.782Z,101511.25
2023-01-03T02:46:19.652Z,101512.22
2023-01-03T02:49:28.536Z,101516.59
2023-01-03T02:52:31.896Z,101516.53
2023-01-03T02:55:36.678Z,101519.97
2023-01-03T02:58:40.952Z,101517.38
2023-01-03T03:01:45.116Z,101516.50
2023-01-03T03:04:52.435Z,101517.41
2023-01-03T03:07:54.142Z,101521.84
2023-01-03T03:11:14.594Z,101514.25
2023-01-03T03:14:22.497Z,101514.53
2023-01-03T03:17:31.462Z,101519.13
2023-01-03T03:20:53.097Z,101520.59
2023-01-03T03:24:18.485Z,101528.50
2023-01-03T03:27:41.626Z,101529.88
2023-01-03T03:30:45.878Z,101539.84
2023-01-03T03:33:51.151Z,101541.34
2023-01-03T03:36:59.992Z,101539.41
2023-01-03T03:40:21.372Z,101542.97
2023-01-03T03:43:46.723Z,101544.69
2023-01-03T03:46:55.477Z,101549.78
2023-01-03T03:50:02.499Z,101549.50
2023-01-03T03:53:09.796Z,101560.66
2023-01-03T03:56:16.466Z,101555.75
2023-01-03T03:59:21.381Z,101554.00
2023-01-03T04:02:26.148Z,101557.00
2023-01-03T04:05:32.037Z,101555.34
2023-01-03T04:08:35.130Z,101553.16
2023-01-03T04:11:36.885Z,101547.78
2023-01-03T04:14:38.606Z,101546.88
2023-01-03T04:17:40.283Z,101552.44
2023-01-03T04:20:41.893Z,101547.97
2023-01-03T04:23:44.833Z,101563.19
2023-01-03T04:26:46.500Z,101555.50
2023-01-03T04:29:48.168Z,101555.13
2023-01-03T04:32:49.782Z,101556.09
2023-01-03T04:35:51.430Z,101555.44
2023-01-03T04:38:54.385Z,101561.38
2023-01-03T04:41:56.004Z,101559.66
2023-01-03T04:44:57.639Z,101569.31
2023-01-03T04:48:00.023Z,101566.28
2023-01-03T04:51:01.850Z,101570.97
2023-01-03T04:54:06.082Z,101571.72
2023-01-03T04:57:08.343Z,101568.81
2023-01-03T05:00:11.440Z,101571.63
2023-01-03T05:03:13.207Z,101576.72
2023-01-03T05:06:14.992Z,101573.25
2023-01-03T05:09:18.062Z,101568.59
2023-01-03T05:12:20.290Z,101567.56
2023-01-03T05:15:21.960Z,101567.66
2023-01-03T05:18:23.622Z,101570.78
2023-01-03T05:21:43.816Z,101568.75
2023-01-03T05:25:12.787Z,101567.84
2023-01-03T05:28:17.425Z,101578.75
2023-01-03T05:31:19.957Z,101580.63
2023-01-03T05:34:21.770Z,101581.19
2023-01-03T05:37:25.043Z,101586.25
2023-01-03T05:40:28.051Z,101586.50
2023-01-03T05:43:29.780Z,101588.19
2023-01-03T05:46:31.863Z,101583.84
2023-01-03T05:49:34.408Z,101583.13
2023-01-03T05:52:36.225Z,101594.28
2023-01-03T05:55:39.754Z,101595.56
2023-01-03T05:58:42.494Z,101594.97
2023-01-03T06:01:44.281Z,101585.97
2023-01-03T06:04:46.099Z,101584.66
2023-01-03T06:07:47.733Z,101590.88
2023-01-03T06:10:50.914Z,101580.75
2023-01-03T06:13:53.311Z,101586.34
2023-01-03T06:17:13.813Z,101586.75
2023-01-03T06:20:15.677Z,101586.31
2023-01-03T06:23:17.306Z,101584.34
2023-01-03T06:26:22.430Z,101594.88
2023-01-03T06:29:23.883Z,101598.38
2023-01-03T06:32:25.614Z,101600.91
2023-01-03T06:35:27.298Z,101604.81
2023-01-03T06:38:29.102Z,101599.84
2023-01-03T06:41:32.114Z,101595.75
2023-01-03T06:44:33.720Z,101605.88
2023-01-03T06:47:55.263Z,101605.31
2023-01-03T06:51:15.948Z,101600.38
2023-01-03T06:54:21.126Z,101598.25
2023-01-03T06:57:25.840Z,101602.41
2023-01-03T07:00:29.134Z,101600.13
2023-01-03T07:03:31.537Z,101605.88
2023-01-03T07:06:33.163Z,101605.53
2023-01-03T07:09:34.929Z,101616.31
2023-01-03T07:12:56.458Z,101611.31
2023-01-03T07:15:58.259Z,101623.97
2023-01-03T07:19:00.243Z,101629.25
2023-01-03T07:22:02.300Z,101635.91
2023-01-03T07:25:04.337Z,101644.03
2023-01-03T07:28:10.142Z,101643.19
2023-01-03T07:31:13.025Z,101642.47
2023-01-03T07:34:14.782Z,101650.09
2023-01-03T07:37:16.390Z,101650.44
2023-01-03T07:40:18.395Z,101651.38
2023-01-03T07:43:39.364Z,101654.19
2023-01-03T07:46:41.142Z,101659.94
2023-01-03T07:49:42.840Z,101665.25
2023-01-03T07:52:44.529Z,101668.06
2023-01-03T07:55:46.354Z,101672.50
2023-01-03T07:58:51.848Z,101667.97
2023-01-03T08:01:54.103Z,101665.63
2023-01-03T08:04:56.043Z,101669.25
2023-01-03T08:07:58.071Z,101675.22
2023-01-03T08:11:18.675Z,101679.22
2023-01-03T08:14:25.559Z,101682.94
2023-01-03T08:17:28.544Z,101679.34
2023-01-03T08:20:30.272Z,101685.50
2023-01-03T08:23:31.966Z,101696.56
2023-01-03T08:26:33.699Z,101689.56
2023-01-03T08:29:36.819Z,101703.84
2023-01-03T08:32:38.855Z,101693.31
2023-01-03T08:35:44.305Z,101696.94
2023-01-03T08:38:49.334Z,101704.69
2023-01-03T08:41:57.263Z,101703.84
2023-01-03T08:45:02.596Z,101708.22
2023-01-03T08:48:06.202Z,101716.75
2023-01-03T08:51:08.183Z,101719.16
2023-01-03T08:54:09.813Z,101709.91
2023-01-03T08:57:11.699Z,101719.25
2023-01-03T09:00:15.641Z,101717.81
2023-01-03T09:03:17.540Z,101721.34
2023-01-03T09:06:19.914Z,101725.91
2023-01-03T09:09:21.762Z,101736.63
2023-01-03T09:12:23.425Z,101734.69
2023-01-03T09:15:26.511Z,101733.88
2023-01-03T09:18:28.212Z,101732.03
2023-01-03T09:21:30.731Z,101731.09
2023-01-03T09:24:32.427Z,101733.69
2023-01-03T09:27:34.181Z,101730.13
2023-01-03T09:30:37.264Z,101730.66
2023-01-03T09:33:39.036Z,101727.25
2023-01-03T09:36:40.781Z,101733.22
2023-01-03T09:39:42.518Z,101731.09
2023-01-03T09:43:03.153Z,101737.94
2023-01-03T09:46:07.195Z,101731.91
2023-01-03T09:49:13.854Z,101746.78
2023-01-03T09:52:37.519Z,101742.75
2023-01-03T09:56:06.059Z,101742.94
2023-01-03T09:59:30.450Z,101745.22
2023-01-03T10:03:08.875Z,101745.81
2023-01-03T10:06:20.595Z,101746.94
2023-01-03T10:09:29.064Z,101730.56
2023-01-03T10:12:38.723Z,101732.13
2023-01-03T10:15:52.500Z,101729.97
2023-01-03T10:19:09.839Z,101723.47
2023-01-03T10:22:12.868Z,101726.84
2023-01-03T10:25:18.931Z,101716.25
2023-01-03T10:28:24.206Z,101720.28
2023-01-03T10:31:40.175Z,101718.06
2023-01-03T10:34:43.213Z,101715.63
2023-01-03T10:37:45.688Z,101717.19
2023-01-03T10:40:50.372Z,101722.78
2023-01-03T10:44:00.544Z,101720.34
2023-01-03T10:47:09.981Z,101724.31
2023-01-03T10:50:22.602Z,101713.63
2023-01-03T10:53:24.670Z,101715.13
2023-01-03T10:56:29.122Z,101714.53
2023-01-03T10:59:32.069Z,101711.56
2023-01-03T11:02:42.725Z,101710.81
2023-01-03T11:05:47.840Z,101707.59
2023-01-03T11:09:00.508Z,101707.03
2023-01-03T11:12:12.370Z,101699.66
2023-01-03T11:15:17.087Z,101695.91
2023-01-03T11:18:22.945Z,101696.13
2023-01-03T11:21:30.792Z,101695.78
2023-01-03T11:24:53.018Z,101686.91
2023-01-03T11:28:17.559Z,101688.22
2023-01-03T11:31:33.602Z,101677.91
2023-01-03T11:35:21.615Z,101678.47
2023-01-03T11:38:40.187Z,101676.56
2023-01-03T11:42:19.783Z,101680.94
2023-01-03T11:45:49.528Z,101683.72
2023-01-03T11:49:01.392Z,101678.78
2023-01-03T11:52:20.760Z,101684.97
2023-01-03T11:55:56.662Z,101670.06
2023-01-03T11:59:36.832Z,101673.81
2023-01-03T12:02:58.708Z,101671.22
2023-01-03T12:06:08.421Z,101667.06
2023-01-03T12:09:20.918Z,101665.59
2023-01-03T12:12:42.435Z,101667.72
2023-01-03T12:15:49.423Z,101662.88
2023-01-03T12:18:58.528Z,101654.50
2023-01-03T12:22:07.216Z,101666.25
2023-01-03T12:25:20.646Z,101660.13
2023-01-03T12:28:28.023Z,101660.75
2023-01-03T12:31:37.223Z,101651.34
2023-01-03T12:34:47.485Z,101661.25
2023-01-03T12:37:50.902Z,101651.66
2023-01-03T12:40:58.201Z,101655.63
2023-01-03T12:44:07.731Z,101646.47
2023-01-03T12:47:20.030Z,101650.81
2023-01-03T12:50:28.185Z,101643.66
2023-01-03T12:53:38.771Z,101648.38
2023-01-03T12:56:57.293Z,101639.91
2023-01-03T13:00:21.847Z,101630.47
2023-01-03T13:03:30.118Z,101620.28
2023-01-03T13:06:37.494Z,101626.44
2023-01-03T13:09:43.643Z,101629.19
2023-01-03T13:12:52.517Z,101621.44
2023-01-03T13:15:55.655Z,101619.22
2023-01-03T13:19:37.041Z,101611.91
2023-01-03T13:22:57.398Z,101602.03
2023-01-03T13:26:23.179Z,101601.69
2023-01-03T13:29:43.678Z,101598.41
2023-01-03T13:32:53.410Z,101606.59
2023-01-03T13:35:59.923Z,101617.38
2023-01-03T13:39:01.939Z,101610.75
2023-01-03T13:42:03.741Z,101612.06
2023-01-03T13:45:56.042Z,101607.72
2023-01-03T13:49:01.959Z,101596.97
2023-01-03T13:52:06.170Z,101605.59
2023-01-03T13:55:33.752Z,101600.91
2023-01-03T13:58:42.629Z,101607.44
2023-01-03T14:02:08.797Z,101601.78
2023-01-03T14:05:29.953Z,101599.34
2023-01-03T14:08:53.262Z,101601.09
2023-01-03T14:12:18.778Z,101601.28
2023-01-03T14:15:26.403Z,101593.69
2023-01-03T14:18:32.184Z,101596.38
2023-01-03T14:21:42.430Z,101597.31
2023-01-03T14:24:48.295Z,101591.81
2023-01-03T14:27:49.971Z,101596.03
2023-01-03T14:31:02.146Z,101601.50
2023-01-03T14:34:05.457Z,101599.97
2023-01-03T14:37:13.046Z,101605.22
2023-01-03T14:40:19.614Z,101607.59
2023-01-03T14:43:21.833Z,101609.44
2023-01-03T14:46:23.637Z,101597.38
2023-01-03T14:49:35.115Z,101606.59
2023-01-03T14:52:40.897Z,101619.31
2023-01-03T14:55:50.456Z,101619.34
2023-01-03T14:58:53.468Z,101623.63
2023-01-03T15:01:55.413Z,101623.47
2023-01-03T15:04:58.404Z,101618.22
2023-01-03T15:08:21.857Z,101623.28
2023-01-03T15:11:32.851Z,101625.38
2023-01-03T15:14:36.221Z,101630.25
2023-01-03T15:17:38.077Z,101634.00
2023-01-03T15:20:42.613Z,101634.19
2023-01-03T15:23:48.570Z,101633.25
2023-01-03T15:26:52.659Z,101639.63
2023-01-03T15:29:54.345Z,101642.44
2023-01-03T15:32:59.126Z,101643.97
2023-01-03T15:36:05.411Z,101646.97
2023-01-03T15:39:16.309Z,101654.44
2023-01-03T15:42:50.156Z,101647.53
2023-01-03T15:46:02.260Z,101655.19
2023-01-03T15:49:06.210Z,101655.75
2023-01-03T15:52:12.055Z,101658.00
2023-01-03T15:55:16.917Z,101655.38
2023-01-03T15:58:18.938Z,101654.44
2023-01-03T16:01:22.630Z,101664.19
2023-01-03T16:04:25.861Z,101674.09
2023-01-03T16:07:27.760Z,101677.69
2023-01-03T16:10:30.794Z,101678.97
2023-01-03T16:13:37.528Z,101683.47
2023-01-03T16:16:42.264Z,101686.84
2023-01-03T16:19:44.516Z,101683.44
2023-01-03T16:22:59.822Z,101676.72
2023-01-03T16:26:04.664Z,101675.97
2023-01-03T16:29:06.362Z,101669.44
2023-01-03T16:32:17.314Z,101677.84
2023-01-03T16:35:20.485Z,101685.69
2023-01-03T16:38:25.382Z,101672.00
2023-01-03T16:41:28.541Z,101676.19
2023-01-03T16:44:30.177Z,101677.28
2023-01-03T16:47:34.901Z,101671.22
2023-01-03T16:50:39.400Z,101675.44
2023-01-03T16:53:41.160Z,101684.16
2023-01-03T16:56:44.888Z,101685.88
2023-01-03T16:59:47.318Z,101679.84
2023-01-03T17:02:49.268Z,101689.25
2023-01-03T17:05:51.418Z,101686.53
2023-01-03T17:08:53.461Z,101690.50
2023-01-03T17:11:56.483Z,101688.16
2023-01-03T17:14:58.182Z,101688.13
2023-01-03T17:17:59.904Z,101688.22
2023-01-03T17:21:09.001Z,101690.53
2023-01-03T17:24:15.671Z,101697.78
2023-01-03T17:27:23.894Z,101698.53
2023-01-03T17:30:29.630Z,101699.06
2023-01-03T17:33:34.251Z,101700.38
2023-01-03T17:36:36.661Z,101704.25
2023-01-03T17:39:38.454Z,101701.16
2023-01-03T17:42:41.541Z,101709.59
2023-01-03T17:46:01.989Z,101705.34
2023-01-03T17:49:22.890Z,101707.91
2023-01-03T17:52:32.063Z,101706.50
2023-01-03T17:55:33.921Z,101707.22
2023-01-03T17:58:38.742Z,101702.63
2023-01-03T18:01:41.743Z,101702.47
2023-01-03T18:05:14.097Z,101695.81
2023-01-03T18:08:05.531Z,101697.38
2023-01-03T18:11:08.259Z,101701.59
2023-01-03T18:14:14.475Z,101704.50
2023-01-03T18:17:27.534Z,101700.78
2023-01-03T18:20:31.056Z,101714.13
2023-01-03T18:23:36.319Z,101708.38
2023-01-03T18:26:40.986Z,101707.34
2023-01-03T18:29:44.168Z,101701.16
2023-01-03T18:32:48.126Z,101709.94
2023-01-03T18:35:50.237Z,101700.72
2023-01-03T18:39:02.230Z,101694.41
2023-01-03T18:42:22.785Z,101692.75
2023-01-03T18:45:25.765Z,101691.09
2023-01-03T18:48:27.485Z,101689.22
2023-01-03T18:51:29.434Z,101696.56
2023-01-03T18:54:35.020Z,101694.63
2023-01-03T18:57:36.898Z,101687.53
2023-01-03T19:00:39.890Z,101690.31
2023-01-03T19:03:42.814Z,101700.13
2023-01-03T19:06:47.418Z,101695.47
2023-01-03T19:09:49.719Z,101693.28
2023-01-03T19:12:53.627Z,101692.75
2023-01-03T19:15:57.040Z,101696.13
2023-01-03T19:18:58.769Z,101696.66
2023-01-03T19:22:00.492Z,101701.34
2023-01-03T19:25:05.831Z,101695.56
2023-01-03T19:28:11.627Z,101687.38
2023-01-03T19:31:14.687Z,101694.69
2023-01-03T19:34:17.801Z,101686.25
2023-01-03T19:37:19.486Z,101685.97
2023-01-03T19:40:24.856Z,101687.84
2023-01-03T19:43:26.529Z,101691.28
2023-01-03T19:46:29.622Z,101686.59
2023-01-03T19:49:31.227Z,101678.66
2023-01-03T19:52:32.993Z,101681.38
2023-01-03T19:55:38.629Z,101684.41
2023-01-03T19:58:42.294Z,101678.41
2023-01-03T20:02:22.765Z,101675.97
2023-01-03T20:05:14.450Z,101676.00
2023-01-03T20:08:16.176Z,101664.25
2023-01-03T20:11:20.692Z,101677.69
2023-01-03T20:14:23.402Z,101655.50
2023-01-03T20:17:26.984Z,101671.78
2023-01-03T20:20:30.906Z,101655.00
2023-01-03T20:23:36.300Z,101662.06
2023-01-03T20:26:40.072Z,101652.94
2023-01-03T20:29:42.133Z,101648.78
2023-01-03T20:32:45.144Z,101642.41
2023-01-03T20:39:22.226Z,101637.50
2023-01-03T20:42:24.909Z,101636.97
2023-01-03T20:45:26.657Z,101640.28
2023-01-03T20:48:32.721Z,101636.94
2023-01-03T20:51:34.994Z,101633.13
2023-01-03T20:54:36.738Z,101626.38
2023-01-03T20:57:38.521Z,101627.44
2023-01-03T21:00:40.688Z,101638.44
2023-01-03T21:03:43.842Z,101632.25
2023-01-03T21:06:46.495Z,101630.41
2023-01-03T21:09:48.252Z,101635.44
2023-01-03T21:12:49.962Z,101626.69
2023-01-03T21:15:51.857Z,101619.56
2023-01-03T21:18:55.739Z,101613.94
2023-01-03T21:21:59.127Z,101608.72
2023-01-03T21:25:01.956Z,101609.84
2023-01-03T21:28:04.063Z,101605.13
2023-01-03T21:31:05.873Z,101613.53
2023-01-03T21:34:16.279Z,101599.34
2023-01-03T21:37:18.106Z,101602.50
2023-01-03T21:40:21.316Z,101612.38
2023-01-03T21:43:22.959Z,101616.31
2023-01-03T21:46:26.292Z,101613.16
2023-01-03T21:49:29.464Z,101613.06
2023-01-03T21:52:31.108Z,101612.06
2023-01-03T21:55:33.586Z,101612.84
2023-01-03T21:58:35.596Z,101605.28
2023-01-03T22:01:57.402Z,101598.41
2023-01-03T22:05:00.446Z,101605.13
2023-01-03T22:08:03.075Z,101604.75
2023-01-03T22:11:05.294Z,101598.25
2023-01-03T22:14:06.981Z,101588.50
2023-01-03T22:17:08.629Z,101583.03
2023-01-03T22:20:16.414Z,101573.22
2023-01-03T22:23:19.113Z,101573.03
2023-01-03T22:26:20.904Z,101578.75
2023-01-03T22:29:22.585Z,101591.19
2023-01-03T22:32:24.766Z,101590.88
2023-01-03T22:35:27.875Z,101596.25
2023-01-03T22:38:29.520Z,101601.91
2023-01-03T22:41:31.274Z,101606.84
2023-01-03T22:44:32.959Z,101603.88
2023-01-03T22:47:34.859Z,101608.72
2023-01-03T22:50:39.498Z,101613.41
2023-01-03T22:53:42.634Z,101605.28
2023-01-03T22:56:44.541Z,101595.72
2023-01-03T22:59:46.234Z,101599.47
2023-01-03T23:02:48.097Z,101593.56
2023-01-03T23:05:51.137Z,101590.44
2023-01-03T23:08:54.999Z,101589.53
2023-01-03T23:12:15.103Z,101585.44
2023-01-03T23:15:16.818Z,101587.50
2023-01-03T23:18:18.457Z,101582.94
2023-01-03T23:21:21.444Z,101581.72
2023-01-03T23:24:24.941Z,101567.88
2023-01-03T23:27:27.274Z,101563.75
2023-01-03T23:30:29.037Z,101557.69
2023-01-03T23:33:30.799Z,101553.00
2023-01-03T23:36:34.143Z,101557.53
2023-01-03T23:39:35.772Z,101555.28
2023-01-03T23:42:37.535Z,101552.16
2023-01-03T23:45:39.260Z,101550.28
2023-01-03T23:48:41.040Z,101542.72
2023-01-03T23:51:44.113Z,101546.28
2023-01-03T23:54:45.797Z,101546.50
2023-01-03T23:57:50.083Z,101554.81
